Time;durP1;ratioP1;P1;durP2;ratioP2;P2;SDS_P1;SDS_P2;PMS_P1;PMS_P2;Temp;Humidity;BMP_temperature;BMP_pressure;BME280_temperature;BME280_humidity;BME280_pressure;Samples;Min_cycle;Max_cycle;Signal;HPM_P1;HPM_P2
2024/02/28 00:01:33;;;;;;;13.70;5.00;;;;;;;11.66;53.43;102456.80;107055;1254;25348;-55
2024/02/28 00:04:01;;;;;;;14.40;4.90;;;;;;;11.64;53.42;102456.95;107090;1261;22527;-55
2024/02/28 00:06:29;;;;;;;20.30;5.30;;;;;;;11.62;53.42;102456.42;107114;1251;22714;-55
2024/02/28 00:08:57;;;;;;;14.70;4.80;;;;;;;11.63;53.61;102456.08;107025;1254;22530;-55
2024/02/28 00:11:25;;;;;;;13.60;5.30;;;;;;;11.63;53.54;102452.79;106874;1260;22553;-55
2024/02/28 00:13:52;;;;;;;12.70;5.10;;;;;;;11.63;53.53;102454.00;106394;1257;1003488;-55
2024/02/28 00:16:20;;;;;;;12.30;4.50;;;;;;;11.59;53.76;102454.68;107227;1251;25370;-55
2024/02/28 00:18:48;;;;;;;10.40;5.00;;;;;;;11.57;53.69;102458.68;107081;1251;22534;-55
2024/02/28 00:21:16;;;;;;;11.50;5.10;;;;;;;11.55;53.81;102462.67;106789;1265;25338;-55
2024/02/28 00:23:44;;;;;;;10.30;4.80;;;;;;;11.54;53.92;102461.80;106866;1257;22524;-55
2024/02/28 00:26:12;;;;;;;10.50;4.80;;;;;;;11.54;53.89;102461.80;106982;1254;25356;-55
2024/02/28 00:28:39;;;;;;;14.40;4.50;;;;;;;11.54;53.94;102456.42;107199;1251;22527;-55
2024/02/28 00:31:07;;;;;;;12.90;4.80;;;;;;;11.54;53.98;102458.52;107088;1253;24353;-55
2024/02/28 00:33:35;;;;;;;13.40;5.40;;;;;;;11.54;53.94;102457.81;106836;1260;22550;-55
2024/02/28 00:36:03;;;;;;;17.70;6.00;;;;;;;11.55;53.93;102457.11;106315;1251;1003046;-55
2024/02/28 00:38:31;;;;;;;14.70;5.10;;;;;;;11.56;53.90;102459.55;107014;1257;22530;-55
2024/02/28 00:40:58;;;;;;;10.90;5.10;;;;;;;11.56;53.99;102462.68;107033;1269;22643;-55
2024/02/28 00:43:26;;;;;;;12.00;5.60;;;;;;;11.55;54.10;102460.42;107141;1269;22565;-55
2024/02/28 00:45:55;;;;;;;15.40;6.10;;;;;;;11.59;54.05;102459.04;107092;1257;23899;-55
2024/02/28 00:48:23;;;;;;;10.70;4.80;;;;;;;11.59;53.90;102460.95;107076;1254;23232;-55
2024/02/28 00:50:52;;;;;;;10.80;4.70;;;;;;;11.59;53.88;102465.29;106964;1272;22536;-55
2024/02/28 00:53:20;;;;;;;14.30;5.00;;;;;;;11.59;53.91;102464.59;106895;1273;22559;-55
2024/02/28 00:55:48;;;;;;;19.00;5.10;;;;;;;11.60;54.08;102465.64;107103;1267;22531;-55
2024/02/28 00:58:15;;;;;;;12.10;5.30;;;;;;;11.63;53.94;102463.55;107118;1251;22555;-55
2024/02/28 01:00:43;;;;;;;14.70;5.90;;;;;;;11.64;54.02;102465.66;107103;1257;24515;-55
2024/02/28 01:03:14;;;;;;;15.80;7.00;;;;;;;11.66;53.99;102466.36;107028;1257;22520;-55
2024/02/28 01:05:42;;;;;;;12.60;4.90;;;;;;;11.67;54.01;102462.89;106161;1267;1002879;-55
2024/02/28 01:08:10;;;;;;;11.60;5.30;;;;;;;11.68;54.11;102462.71;107106;1252;22531;-55
2024/02/28 01:10:38;;;;;;;14.30;5.40;;;;;;;11.70;54.03;102461.34;107092;1256;22535;-55
2024/02/28 01:13:05;;;;;;;13.50;5.20;;;;;;;11.70;53.90;102464.64;107065;1251;22539;-55
2024/02/28 01:15:33;;;;;;;11.10;4.60;;;;;;;11.73;53.77;102465.33;107122;1256;22570;-55
2024/02/28 01:18:01;;;;;;;15.10;4.60;;;;;;;11.71;53.73;102464.82;106889;1259;22527;-55
2024/02/28 01:20:29;;;;;;;12.60;5.30;;;;;;;11.69;53.77;102468.29;106853;1257;24228;-55
2024/02/28 01:22:57;;;;;;;15.40;5.60;;;;;;;11.70;53.86;102468.81;107203;1253;25300;-55
2024/02/28 01:25:24;;;;;;;14.10;4.60;;;;;;;11.71;53.89;102465.68;107011;1268;23904;-55
2024/02/28 01:27:52;;;;;;;13.30;5.40;;;;;;;11.73;53.90;102466.89;107085;1256;22605;-55
2024/02/28 01:30:20;;;;;;;7.60;4.80;;;;;;;11.73;53.83;102462.72;106872;1260;22526;-55
2024/02/28 01:32:47;;;;;;;12.80;4.30;;;;;;;11.73;53.87;102462.90;107070;1256;22562;-55
2024/02/28 01:35:15;;;;;;;13.00;4.90;;;;;;;11.72;53.89;102467.77;107062;1256;23892;-55
2024/02/28 01:37:43;;;;;;;13.10;4.90;;;;;;;11.73;53.85;102462.73;106849;1251;22774;-55
2024/02/28 01:40:12;;;;;;;11.70;4.60;;;;;;;11.75;53.77;102463.77;107241;1267;22526;-55
2024/02/28 01:42:39;;;;;;;13.00;5.20;;;;;;;11.75;53.76;102460.29;106717;1262;22801;-56
2024/02/28 01:45:09;;;;;;;13.80;4.60;;;;;;;11.75;53.77;102458.19;107038;1254;22535;-55
2024/02/28 01:47:37;;;;;;;12.70;4.80;;;;;;;11.76;53.80;102459.59;107127;1270;22519;-55
2024/02/28 01:50:05;;;;;;;12.20;5.00;;;;;;;11.76;53.74;102456.12;107075;1253;25347;-55
2024/02/28 01:52:33;;;;;;;12.40;4.50;;;;;;;11.76;53.63;102458.73;107207;1256;25246;-55
2024/02/28 01:55:01;;;;;;;14.00;4.80;;;;;;;11.75;53.80;102465.15;107106;1269;22523;-55
2024/02/28 01:57:29;;;;;;;17.00;4.60;;;;;;;11.75;53.82;102463.42;107145;1254;22535;-56
2024/02/28 01:59:58;;;;;;;13.80;4.70;;;;;;;11.75;53.81;102458.73;107104;1257;22553;-55
2024/02/28 02:02:25;;;;;;;8.90;4.50;;;;;;;11.75;53.87;102458.39;107020;1259;23123;-55
2024/02/28 02:04:54;;;;;;;18.80;5.20;;;;;;;11.75;53.79;102456.80;107026;1259;22628;-55
2024/02/28 02:07:21;;;;;;;11.70;4.40;;;;;;;11.74;53.69;102459.42;107177;1255;22563;-55
2024/02/28 02:09:50;;;;;;;12.50;5.70;;;;;;;11.71;53.71;102459.08;106844;1257;25347;-55
2024/02/28 02:12:18;;;;;;;12.10;4.80;;;;;;;11.69;53.70;102456.11;107170;1257;22540;-55
2024/02/28 02:14:49;;;;;;;16.30;5.40;;;;;;;11.68;53.77;102455.95;107140;1257;25186;-55
2024/02/28 02:17:16;;;;;;;10.60;4.90;;;;;;;11.65;53.77;102458.19;107180;1257;24318;-55
2024/02/28 02:19:44;;;;;;;10.00;5.00;;;;;;;11.64;53.86;102460.24;106745;1262;22562;-56
2024/02/28 02:22:13;;;;;;;12.60;4.50;;;;;;;11.63;53.88;102460.24;106744;1254;22520;-55
2024/02/28 02:24:41;;;;;;;8.70;4.30;;;;;;;11.62;53.92;102462.52;106780;1257;24222;-56
2024/02/28 02:27:09;;;;;;;10.30;4.30;;;;;;;11.61;53.96;102461.98;107048;1269;22534;-55
2024/02/28 02:33:01;;;;;;;17.00;5.00;;;;;;;11.62;54.15;102465.66;103706;1305;545014;-55
2024/02/28 02:35:29;;;;;;;10.30;3.90;;;;;;;11.59;54.21;102459.20;105875;1270;24248;-55
2024/02/28 02:37:56;;;;;;;10.80;3.90;;;;;;;11.55;54.33;102454.33;105798;1284;25493;-55
2024/02/28 02:40:24;;;;;;;11.20;4.70;;;;;;;11.47;54.55;102457.98;105878;1271;24314;-55
2024/02/28 02:42:52;;;;;;;12.30;4.90;;;;;;;11.51;54.43;102459.72;105877;1270;25282;-56
2024/02/28 02:45:20;;;;;;;13.80;4.90;;;;;;;11.56;54.46;102461.98;105152;1271;1003646;-56
2024/02/28 02:47:48;;;;;;;12.60;4.60;;;;;;;11.57;54.43;102462.16;105744;1283;285629;-55
2024/02/28 02:50:16;;;;;;;20.60;5.30;;;;;;;11.56;54.61;102462.34;106329;1264;22608;-56
2024/02/28 02:52:44;;;;;;;17.40;5.80;;;;;;;11.57;54.59;102463.02;106004;1259;1002836;-56
2024/02/28 02:55:11;;;;;;;9.90;4.20;;;;;;;11.57;54.56;102464.41;106639;1271;25611;-55
2024/02/28 02:57:39;;;;;;;13.90;5.10;;;;;;;11.56;54.55;102466.52;106598;1260;22545;-56
2024/02/28 03:00:11;;;;;;;19.30;5.70;;;;;;;11.56;54.58;102468.42;106331;1260;25548;-56
2024/02/28 03:02:39;;;;;;;10.80;4.70;;;;;;;11.54;54.58;102464.59;106676;1258;22537;-55
2024/02/28 03:05:08;;;;;;;14.80;4.90;;;;;;;11.52;54.55;102464.06;106639;1255;22534;-55
2024/02/28 03:07:36;;;;;;;17.80;4.40;;;;;;;11.53;54.51;102467.89;106772;1260;24318;-56
2024/02/28 03:10:05;;;;;;;11.70;5.10;;;;;;;11.53;54.64;102469.27;106819;1260;22529;-56
2024/02/28 03:12:33;;;;;;;14.40;4.80;;;;;;;11.55;54.61;102469.10;106861;1254;22541;-55
2024/02/28 03:15:02;;;;;;;17.40;5.40;;;;;;;11.57;54.60;102469.45;106421;1265;25348;-56
2024/02/28 03:17:30;;;;;;;12.00;4.80;;;;;;;11.57;54.65;102464.59;106663;1259;22532;-56
2024/02/28 03:19:58;;;;;;;14.80;5.00;;;;;;;11.60;54.67;102465.64;106811;1259;22585;-55
2024/02/28 03:22:27;;;;;;;14.40;5.40;;;;;;;11.60;54.71;102463.73;106712;1260;22533;-55
2024/02/28 03:24:55;;;;;;;14.90;4.90;;;;;;;11.59;54.72;102466.50;106398;1261;25358;-55
2024/02/28 03:27:24;;;;;;;13.40;4.50;;;;;;;11.60;54.82;102468.06;106691;1256;25383;-55
2024/02/28 03:29:51;;;;;;;12.80;4.90;;;;;;;11.61;54.86;102469.29;106654;1275;22537;-55
2024/02/28 03:32:19;;;;;;;12.80;5.30;;;;;;;11.59;54.97;102469.29;106725;1258;22599;-56
2024/02/28 03:34:48;;;;;;;13.40;4.70;;;;;;;11.59;54.88;102467.55;106505;1262;22558;-55
2024/02/28 03:37:15;;;;;;;12.70;4.90;;;;;;;11.59;54.99;102464.23;106549;1264;24262;-56
2024/02/28 03:39:43;;;;;;;19.60;5.20;;;;;;;11.58;54.97;102459.90;106713;1261;22602;-56
2024/02/28 03:42:11;;;;;;;13.50;5.00;;;;;;;11.56;55.11;102460.77;106750;1255;22529;-55
2024/02/28 03:44:39;;;;;;;11.90;4.50;;;;;;;11.57;55.08;102461.29;106042;1261;1002957;-56
2024/02/28 03:47:07;;;;;;;12.40;5.10;;;;;;;11.58;55.07;102467.72;106061;1259;1003111;-55
2024/02/28 03:49:35;;;;;;;11.60;4.80;;;;;;;11.59;55.19;102463.20;106835;1258;22562;-56
2024/02/28 03:52:06;;;;;;;13.00;4.30;;;;;;;11.59;55.14;102461.98;106769;1259;22548;-56
2024/02/28 03:54:33;;;;;;;13.10;4.90;;;;;;;11.58;55.23;102460.95;106108;1256;1003000;-56
2024/02/28 03:57:01;;;;;;;15.30;5.20;;;;;;;11.56;55.18;102464.94;106801;1255;25248;-56
2024/02/28 03:59:29;;;;;;;11.30;5.30;;;;;;;11.55;55.24;102470.33;106668;1258;22545;-58
2024/02/28 04:01:57;;;;;;;14.20;4.50;;;;;;;11.56;55.26;102469.10;106764;1262;25303;-56
2024/02/28 04:04:24;;;;;;;15.80;5.40;;;;;;;11.57;55.28;102471.89;106487;1264;22526;-56
2024/02/28 04:06:52;;;;;;;13.90;4.90;;;;;;;11.57;55.33;102477.45;106091;1258;1003455;-56
2024/02/28 04:09:20;;;;;;;13.20;4.80;;;;;;;11.55;55.30;102479.19;106779;1259;22537;-56
2024/02/28 04:11:48;;;;;;;15.10;5.30;;;;;;;11.55;55.43;102480.23;106385;1263;25372;-56
2024/02/28 04:14:16;;;;;;;17.10;5.70;;;;;;;11.55;55.40;102485.45;106785;1271;22546;-56
2024/02/28 04:16:44;;;;;;;14.20;5.80;;;;;;;11.55;55.40;102487.54;106810;1259;24305;-57
2024/02/28 04:19:12;;;;;;;10.40;5.60;;;;;;;11.55;55.41;102485.63;106818;1259;22529;-56
2024/02/28 04:21:39;;;;;;;14.00;5.60;;;;;;;11.56;55.39;102489.96;106687;1259;24285;-55
2024/02/28 04:24:09;;;;;;;12.70;5.10;;;;;;;11.56;55.38;102489.96;106828;1268;22525;-56
2024/02/28 04:26:36;;;;;;;17.50;5.80;;;;;;;11.56;55.40;102492.92;106956;1268;22538;-56
2024/02/28 04:29:07;;;;;;;13.70;5.10;;;;;;;11.56;55.48;102487.36;106867;1255;22518;-56
2024/02/28 04:31:38;;;;;;;15.90;5.10;;;;;;;11.57;55.48;102486.48;106873;1256;22549;-56
2024/02/28 04:34:05;;;;;;;13.10;5.20;;;;;;;11.56;55.47;102485.79;106898;1257;22548;-55
2024/02/28 04:36:33;;;;;;;14.20;5.60;;;;;;;11.56;55.52;102494.14;106881;1256;22549;-56
2024/02/28 04:39:04;;;;;;;17.00;5.80;;;;;;;11.55;55.51;102500.73;105998;1257;1003834;-56
2024/02/28 04:41:31;;;;;;;11.20;5.10;;;;;;;11.56;55.62;102505.45;106850;1254;24354;-56
2024/02/28 04:43:59;;;;;;;12.60;6.30;;;;;;;11.56;55.65;102509.61;106804;1261;22650;-56
2024/02/28 04:46:27;;;;;;;12.00;5.60;;;;;;;11.58;55.66;102511.88;106959;1257;22528;-56
2024/02/28 04:48:55;;;;;;;11.30;4.80;;;;;;;11.60;55.64;102517.96;106786;1257;22544;-56
2024/02/28 04:51:23;;;;;;;11.30;5.20;;;;;;;11.60;55.71;102518.48;106760;1260;22562;-56
2024/02/28 04:53:51;;;;;;;13.70;6.20;;;;;;;11.60;55.73;102525.78;106638;1273;22559;-56
2024/02/28 04:56:19;;;;;;;13.50;6.80;;;;;;;11.60;55.76;102523.52;106148;1256;1003771;-55
2024/02/28 04:58:47;;;;;;;11.80;5.80;;;;;;;11.62;55.76;102528.74;106768;1274;24245;-55
2024/02/28 05:01:15;;;;;;;11.10;4.80;;;;;;;11.64;55.79;102532.56;106837;1257;24801;-56
2024/02/28 05:03:48;;;;;;;14.80;4.80;;;;;;;11.67;55.70;102531.55;106865;1256;22530;-56
2024/02/28 05:06:16;;;;;;;14.30;6.10;;;;;;;11.68;55.68;102529.83;106843;1256;22564;-56
2024/02/28 05:08:44;;;;;;;12.90;4.60;;;;;;;11.69;55.70;102529.83;106813;1269;22523;-56
2024/02/28 05:14:36;;;;;;;15.90;5.40;;;;;;;11.76;55.87;102536.10;103895;1299;544987;-56
2024/02/28 05:17:04;;;;;;;16.80;5.30;;;;;;;11.75;55.76;102535.91;106098;1267;22569;-56
2024/02/28 05:19:31;;;;;;;13.70;5.50;;;;;;;11.75;55.91;102538.88;106119;1267;23126;-55
2024/02/28 05:22:01;;;;;;;12.00;5.50;;;;;;;11.77;55.86;102541.31;105513;1269;1002837;-56
2024/02/28 05:24:29;;;;;;;12.40;4.90;;;;;;;11.79;56.01;102541.15;106100;1267;22539;-56
2024/02/28 05:26:58;;;;;;;14.90;5.60;;;;;;;11.82;55.96;102536.65;106157;1280;25488;-55
2024/02/28 05:29:26;;;;;;;11.80;6.40;;;;;;;11.85;56.08;102530.20;106114;1273;268480;-55
2024/02/28 05:31:53;;;;;;;12.00;5.60;;;;;;;11.88;56.03;102525.52;105336;1270;1002968;-55
2024/02/28 05:34:22;;;;;;;14.00;5.80;;;;;;;11.92;56.00;102532.64;105616;1263;1003790;-55
2024/02/28 05:36:50;;;;;;;16.70;5.20;;;;;;;11.95;55.97;102539.77;107083;1257;22546;-55
2024/02/28 05:39:18;;;;;;;11.50;5.20;;;;;;;11.98;55.88;102547.79;107138;1267;22530;-55
2024/02/28 05:41:46;;;;;;;13.50;5.80;;;;;;;12.04;55.78;102550.57;107115;1269;22526;-55
2024/02/28 05:44:14;;;;;;;12.10;6.00;;;;;;;12.08;55.68;102551.97;107016;1251;22902;-56
2024/02/28 05:46:42;;;;;;;19.30;6.30;;;;;;;12.12;55.57;102557.36;106283;1257;1003806;-55
2024/02/28 05:49:10;;;;;;;11.90;5.40;;;;;;;12.14;55.50;102566.23;106878;1256;22543;-56
2024/02/28 05:51:38;;;;;;;18.60;6.00;;;;;;;12.18;55.54;102569.71;107186;1257;22539;-55
2024/02/28 05:54:06;;;;;;;14.10;6.10;;;;;;;12.21;55.38;102571.09;107080;1254;22545;-55
2024/02/28 05:56:33;;;;;;;19.80;6.20;;;;;;;12.25;55.28;102576.52;107031;1253;25293;-56
2024/02/28 05:59:01;;;;;;;16.60;5.70;;;;;;;12.29;55.25;102581.20;107069;1273;22532;-55
2024/02/28 06:01:29;;;;;;;13.50;5.90;;;;;;;12.32;55.19;102582.77;107035;1257;22543;-56
2024/02/28 06:03:58;;;;;;;18.00;5.60;;;;;;;12.34;55.20;102581.03;107119;1267;25344;-56
2024/02/28 06:06:26;;;;;;;9.90;4.80;;;;;;;12.35;55.09;102583.29;107064;1267;22527;-55
2024/02/28 06:08:54;;;;;;;9.50;4.90;;;;;;;12.35;55.07;102584.68;106828;1260;22534;-55
2024/02/28 06:11:22;;;;;;;11.70;5.30;;;;;;;12.36;54.98;102586.42;107107;1255;25287;-55
2024/02/28 06:13:51;;;;;;;19.30;5.50;;;;;;;12.38;54.86;102586.95;106812;1257;22526;-55
2024/02/28 06:16:19;;;;;;;12.80;6.00;;;;;;;12.40;54.66;102590.43;106352;1267;1002910;-55
2024/02/28 06:18:47;;;;;;;17.80;6.30;;;;;;;12.40;54.64;102593.91;107060;1257;22615;-55
2024/02/28 06:21:14;;;;;;;18.20;5.60;;;;;;;12.43;54.54;102592.17;107106;1255;22554;-55
2024/02/28 06:23:42;;;;;;;11.90;4.90;;;;;;;12.44;54.50;102594.25;107111;1266;22546;-55
2024/02/28 06:26:16;;;;;;;17.50;5.40;;;;;;;12.44;54.41;102594.60;106713;1257;24391;-55
2024/02/28 06:28:48;;;;;;;11.00;5.50;;;;;;;12.46;54.49;102604.70;106815;1260;22549;-55
2024/02/28 06:31:16;;;;;;;10.90;5.00;;;;;;;12.48;54.40;102608.34;107076;1257;22986;-55
2024/02/28 06:33:44;;;;;;;10.30;5.30;;;;;;;12.50;54.43;102606.44;106299;1252;1002871;-55
2024/02/28 06:36:12;;;;;;;11.90;5.60;;;;;;;12.53;54.46;102604.69;106817;1266;22536;-56
2024/02/28 06:38:40;;;;;;;19.20;5.90;;;;;;;12.53;54.45;102606.08;106922;1259;22540;-55
2024/02/28 06:41:08;;;;;;;15.10;6.20;;;;;;;12.54;54.14;102610.08;106986;1257;22632;-55
2024/02/28 06:43:37;;;;;;;12.20;5.80;;;;;;;12.53;54.20;102607.82;107069;1254;22527;-55
2024/02/28 06:46:04;;;;;;;11.10;5.80;;;;;;;12.56;54.27;102605.21;107142;1256;22526;-56
2024/02/28 06:48:32;;;;;;;10.50;5.40;;;;;;;12.58;54.27;102608.35;106281;1258;1003256;-55
2024/02/28 06:51:00;;;;;;;11.50;5.50;;;;;;;12.60;54.17;102609.91;107011;1254;23198;-56
2024/02/28 06:53:28;;;;;;;13.90;6.30;;;;;;;12.63;54.02;102613.23;106701;1273;22748;-54
2024/02/28 06:55:56;;;;;;;12.90;5.60;;;;;;;12.65;53.82;102610.59;106986;1257;25510;-55
2024/02/28 06:58:25;;;;;;;10.80;5.40;;;;;;;12.66;53.75;102607.46;107127;1250;25402;-55
2024/02/28 07:00:53;;;;;;;14.30;5.90;;;;;;;12.67;53.83;102613.58;106951;1256;22526;-55
2024/02/28 07:03:23;;;;;;;10.20;5.00;;;;;;;12.68;53.86;102616.70;106318;1254;1003649;-55
2024/02/28 07:05:51;;;;;;;12.50;5.80;;;;;;;12.71;53.90;102618.08;107184;1257;22526;-55
2024/02/28 07:08:20;;;;;;;13.60;5.90;;;;;;;12.74;53.73;102624.17;107072;1253;22558;-55
2024/02/28 07:10:53;;;;;;;10.80;5.90;;;;;;;12.76;53.72;102629.23;107084;1256;22524;-56
2024/02/28 07:13:21;;;;;;;15.60;6.20;;;;;;;12.78;53.60;102630.97;107053;1267;22523;-55
2024/02/28 07:15:49;;;;;;;17.20;6.00;;;;;;;12.77;53.62;102632.53;106927;1256;22982;-55
2024/02/28 07:18:17;;;;;;;15.80;5.50;;;;;;;12.76;53.57;102633.75;106781;1258;24242;-56
2024/02/28 07:20:46;;;;;;;17.00;6.30;;;;;;;12.77;53.41;102634.27;107062;1269;23857;-55
2024/02/28 07:23:14;;;;;;;11.80;6.00;;;;;;;12.78;53.27;102631.84;106820;1260;24291;-54
2024/02/28 07:25:42;;;;;;;12.60;5.90;;;;;;;12.79;53.46;102632.70;107113;1267;24268;-54
2024/02/28 07:28:09;;;;;;;14.30;5.60;;;;;;;12.81;53.58;102630.95;107099;1251;22767;-55
2024/02/28 07:30:37;;;;;;;14.00;5.90;;;;;;;12.84;53.68;102626.44;107029;1269;25452;-55
2024/02/28 07:33:06;;;;;;;20.00;6.40;;;;;;;12.87;53.71;102621.37;107079;1270;25264;-55
2024/02/28 07:35:52;;;;;;;14.70;6.40;;;;;;;12.93;53.77;102623.27;106132;1270;1003475;-55
2024/02/28 07:38:20;;;;;;;11.00;5.30;;;;;;;12.99;53.66;102623.27;107045;1266;23971;-56
2024/02/28 07:40:49;;;;;;;10.80;5.70;;;;;;;13.03;53.54;102625.17;106929;1270;24218;-54
2024/02/28 07:43:17;;;;;;;12.00;5.80;;;;;;;13.05;53.41;102622.94;106930;1259;25347;-55
2024/02/28 07:45:44;;;;;;;11.10;5.90;;;;;;;13.10;53.43;102623.80;106956;1272;25245;-55
2024/02/28 07:48:12;;;;;;;18.50;7.30;;;;;;;13.14;53.27;102623.09;106958;1273;24070;-55
2024/02/28 07:50:41;;;;;;;13.10;6.00;;;;;;;13.18;53.03;102624.48;107064;1267;25367;-55
2024/02/28 07:53:09;;;;;;;10.90;5.80;;;;;;;13.21;52.98;102627.61;107043;1254;22523;-55
2024/02/28 07:55:38;;;;;;;16.00;6.40;;;;;;;13.24;52.87;102630.02;107115;1270;25239;-55
2024/02/28 07:58:06;;;;;;;12.60;5.60;;;;;;;13.24;52.64;102633.17;106906;1272;22532;-55
2024/02/28 08:00:35;;;;;;;16.70;6.80;;;;;;;13.24;52.35;102634.04;106904;1269;25368;-54
2024/02/28 08:03:04;;;;;;;17.80;6.30;;;;;;;13.28;52.47;102633.86;106999;1254;22523;-55
2024/02/28 08:05:35;;;;;;;14.50;6.10;;;;;;;13.33;52.35;102634.36;106818;1267;26580;-55
2024/02/28 08:08:04;;;;;;;15.00;6.70;;;;;;;13.38;52.20;102629.65;106878;1269;25497;-55
2024/02/28 08:10:31;;;;;;;10.40;6.40;;;;;;;13.41;52.09;102632.07;106598;1267;22532;-55
2024/02/28 08:12:59;;;;;;;17.20;6.70;;;;;;;13.45;51.78;102630.65;106601;1266;24291;-55
2024/02/28 08:15:27;;;;;;;15.30;6.40;;;;;;;13.48;51.57;102628.73;106771;1267;25297;-55
2024/02/28 08:17:55;;;;;;;12.80;5.30;;;;;;;13.47;51.39;102628.73;106904;1266;22530;-55
2024/02/28 08:20:24;;;;;;;12.20;5.80;;;;;;;13.44;51.52;102625.95;107029;1267;22539;-54
2024/02/28 08:22:52;;;;;;;10.80;5.40;;;;;;;13.44;51.55;102628.21;106828;1269;22546;-54
2024/02/28 08:25:20;;;;;;;15.30;7.10;;;;;;;13.45;51.54;102633.10;106970;1267;24197;-55
2024/02/28 08:27:48;;;;;;;16.50;7.90;;;;;;;13.42;51.39;102640.95;106677;1267;25255;-55
2024/02/28 08:30:16;;;;;;;15.10;6.60;;;;;;;13.38;51.44;102642.89;106824;1273;22477;-55
2024/02/28 08:32:44;;;;;;;11.30;5.30;;;;;;;13.36;51.46;102641.50;106654;1251;22631;-55
2024/02/28 08:35:12;;;;;;;13.00;6.00;;;;;;;13.38;51.18;102641.33;106952;1267;22645;-55
2024/02/28 08:37:40;;;;;;;9.20;5.10;;;;;;;13.41;51.08;102643.23;106251;1267;1003273;-57
2024/02/28 08:40:08;;;;;;;11.90;5.40;;;;;;;13.42;51.21;102634.67;106768;1270;22539;-55
2024/02/28 08:42:37;;;;;;;16.20;6.10;;;;;;;13.45;51.46;102635.88;106915;1267;22538;-55
2024/02/28 08:45:07;;;;;;;8.80;5.50;;;;;;;13.45;51.27;102636.92;106964;1269;24405;-55
2024/02/28 08:47:34;;;;;;;11.90;5.10;;;;;;;13.41;51.08;102640.27;106800;1272;22629;-55
2024/02/28 08:50:02;;;;;;;12.30;5.60;;;;;;;13.42;51.28;102637.46;107086;1274;24051;-55
2024/02/28 08:52:30;;;;;;;12.30;5.80;;;;;;;13.46;51.34;102632.39;107114;1274;25366;-54
2024/02/28 08:54:58;;;;;;;10.90;5.00;;;;;;;13.53;51.27;102636.39;106838;1274;25347;-54
2024/02/28 08:57:27;;;;;;;9.70;4.30;;;;;;;13.62;51.21;102643.85;107081;1274;24212;-55
2024/02/28 08:59:55;;;;;;;9.50;5.30;;;;;;;13.69;51.07;102642.42;106929;1267;22546;-55
2024/02/28 09:02:23;;;;;;;10.50;4.80;;;;;;;13.74;50.80;102640.11;107066;1274;22544;-54
2024/02/28 09:04:52;;;;;;;9.00;5.00;;;;;;;13.78;50.62;102640.45;106753;1266;25306;-55
2024/02/28 09:07:20;;;;;;;9.40;5.10;;;;;;;13.85;50.54;102642.50;107062;1273;24215;-56
2024/02/28 09:09:49;;;;;;;17.70;6.60;;;;;;;13.94;50.11;102638.97;107051;1267;22536;-55
2024/02/28 09:12:17;;;;;;;9.60;4.60;;;;;;;14.04;49.90;102639.09;106916;1267;22555;-55
2024/02/28 09:14:45;;;;;;;10.50;5.70;;;;;;;14.13;49.85;102637.10;107089;1267;22573;-55
2024/02/28 09:17:13;;;;;;;13.90;4.90;;;;;;;14.22;49.82;102640.53;107102;1269;25491;-55
2024/02/28 09:19:42;;;;;;;16.60;4.10;;;;;;;14.29;49.43;102646.61;106807;1267;22526;-55
2024/02/28 09:22:11;;;;;;;10.80;4.40;;;;;;;14.37;49.27;102646.21;107118;1267;24219;-55
2024/02/28 09:24:39;;;;;;;13.30;5.30;;;;;;;14.46;49.19;102646.85;107077;1267;25347;-54
2024/02/28 09:27:08;;;;;;;10.00;4.20;;;;;;;14.51;48.83;102649.59;107093;1267;24243;-54
2024/02/28 09:29:36;;;;;;;10.60;4.50;;;;;;;14.53;48.56;102649.58;107068;1273;22523;-55
2024/02/28 09:32:06;;;;;;;8.90;4.00;;;;;;;14.53;48.35;102647.48;107041;1270;22562;-55
2024/02/28 09:34:35;;;;;;;14.60;4.10;;;;;;;14.54;48.14;102643.48;106291;1253;1003539;-54
2024/02/28 09:40:30;;;;;;;7.40;3.70;;;;;;;14.62;48.04;102650.04;103795;1298;544946;-54
2024/02/28 09:43:03;;;;;;;15.00;4.00;;;;;;;14.60;47.89;102647.08;106041;1285;22659;-54
2024/02/28 09:45:33;;;;;;;14.30;4.30;;;;;;;14.60;47.78;102648.48;105368;1282;1003114;-55
2024/02/28 09:48:03;;;;;;;60.10;25.20;;;;;;;14.63;47.59;102643.73;106010;1282;23003;-54
2024/02/28 09:50:32;;;;;;;97.90;38.10;;;;;;;14.65;47.77;102642.48;106107;1285;25406;-54
2024/02/28 09:53:00;;;;;;;38.30;14.70;;;;;;;14.65;47.93;102640.91;105831;1280;326278;-55
2024/02/28 09:55:37;;;;;;;25.50;9.20;;;;;;;14.68;47.56;102642.64;106780;1273;22534;-55
2024/02/28 09:58:06;;;;;;;14.80;5.70;;;;;;;14.66;47.34;102636.20;106678;1270;25374;-54
2024/02/28 10:00:35;;;;;;;10.20;5.20;;;;;;;14.59;47.16;102638.88;106400;1273;24302;-55
2024/02/28 10:03:04;;;;;;;13.70;4.70;;;;;;;14.56;47.36;102643.45;106788;1273;24281;-55
2024/02/28 10:05:33;;;;;;;13.00;3.90;;;;;;;14.56;47.51;102642.58;106709;1276;22532;-54
2024/02/28 10:08:01;;;;;;;14.20;4.80;;;;;;;14.53;47.58;102643.83;106463;1270;25293;-55
2024/02/28 10:10:30;;;;;;;15.30;4.60;;;;;;;14.49;47.59;102641.06;106767;1270;22546;-54
2024/02/28 10:12:59;;;;;;;10.80;5.10;;;;;;;14.50;47.53;102637.21;106083;1272;1003607;-54
2024/02/28 10:15:28;;;;;;;13.10;4.60;;;;;;;14.50;47.35;102641.05;106536;1278;23871;-54
2024/02/28 10:17:57;;;;;;;12.40;4.10;;;;;;;14.53;47.03;102641.55;106851;1272;25376;-55
2024/02/28 10:20:25;;;;;;;7.20;4.00;;;;;;;14.56;46.96;102634.55;106840;1273;23913;-54
2024/02/28 10:22:54;;;;;;;18.50;5.20;;;;;;;14.58;46.94;102636.45;106768;1259;22578;-54
2024/02/28 10:25:23;;;;;;;14.70;4.80;;;;;;;14.57;46.96;102636.62;106869;1273;22533;-54
2024/02/28 10:27:52;;;;;;;10.00;4.10;;;;;;;14.53;46.98;102636.30;106734;1273;25372;-55
2024/02/28 10:30:21;;;;;;;16.20;4.80;;;;;;;14.48;47.10;102635.13;106679;1272;22758;-55
2024/02/28 10:32:52;;;;;;;15.00;4.80;;;;;;;14.48;47.07;102636.35;106691;1274;22532;-55
2024/02/28 10:35:25;;;;;;;18.10;5.20;;;;;;;14.49;46.97;102629.54;106771;1267;24275;-55
2024/02/28 10:37:53;;;;;;;15.20;5.80;;;;;;;14.53;46.74;102623.56;107064;1269;23000;-55
2024/02/28 10:40:22;;;;;;;12.60;4.90;;;;;;;14.57;46.77;102618.98;106902;1269;22537;-54
2024/02/28 10:42:53;;;;;;;13.30;4.20;;;;;;;14.60;46.74;102615.11;106964;1270;25290;-54
2024/02/28 10:45:25;;;;;;;12.40;4.20;;;;;;;14.62;46.58;102609.52;106925;1273;22526;-55
2024/02/28 10:48:17;;;;;;;12.20;4.50;;;;;;;14.62;46.48;102607.77;106896;1272;25256;-54
2024/02/28 10:50:45;;;;;;;17.20;4.60;;;;;;;14.58;46.52;102606.76;107160;1270;24245;-54
2024/02/28 10:53:14;;;;;;;8.10;4.40;;;;;;;14.51;46.43;102606.66;106881;1272;24489;-54
2024/02/28 10:55:43;;;;;;;14.20;4.60;;;;;;;14.45;46.65;102606.52;110475;1275;22199;-53
2024/02/28 10:58:11;;;;;;;12.10;4.60;;;;;;;14.43;46.93;102605.85;110346;1276;22384;-53
2024/02/28 11:00:41;;;;;;;13.40;4.50;;;;;;;14.43;46.91;102609.34;110516;1270;22780;-53
2024/02/28 11:03:09;;;;;;;14.70;4.30;;;;;;;14.44;46.85;102612.98;110333;1275;22380;-53
2024/02/28 11:05:45;;;;;;;15.10;4.10;;;;;;;14.44;46.97;102611.60;110478;1269;23244;-53
2024/02/28 11:08:23;;;;;;;17.70;4.90;;;;;;;14.44;46.94;102609.33;110396;1275;22645;-53
2024/02/28 11:10:57;;;;;;;12.80;5.60;;;;;;;14.45;46.79;102614.21;110491;1269;23177;-53
2024/02/28 11:13:26;;;;;;;10.40;4.00;;;;;;;14.48;46.66;102610.52;110442;1273;22326;-53
2024/02/28 11:15:57;;;;;;;15.20;4.90;;;;;;;14.48;46.69;102609.98;110487;1270;23152;-54
2024/02/28 11:18:24;;;;;;;9.60;4.60;;;;;;;14.48;46.74;102606.14;110453;1270;22947;-53
2024/02/28 11:20:52;;;;;;;13.20;4.80;;;;;;;14.50;46.80;102605.78;110526;1270;22296;-53
2024/02/28 11:23:20;;;;;;;14.50;4.20;;;;;;;14.49;46.83;102600.73;109698;1276;1002772;-53